Time;durP1;ratioP1;P1;durP2;ratioP2;P2;SDS_P1;SDS_P2;PMS_P1;PMS_P2;Temp;Humidity;BMP_temperature;BMP_pressure;BME280_temperature;BME280_humidity;BME280_pressure;Samples;Min_cycle;Max_cycle;Signal;HPM_P1;HPM_P2
2023/07/01 00:00:08;;;;;;;5.77;3.53;;;;;;;;;;5029960;28;20222;-26
2023/07/01 00:02:36;;;;;;;5.83;3.50;;;;;;;;;;5026322;28;20211;-24
2023/07/01 00:05:04;;;;;;;5.10;3.50;;;;;;;;;;5023485;28;20210;-24
2023/07/01 00:07:31;;;;;;;5.00;3.57;;;;;;;;;;5031779;28;20209;-26
2023/07/01 00:09:58;;;;;;;5.60;3.53;;;;;;;;;;5020834;28;20206;-24
2023/07/01 00:12:25;;;;;;;5.37;3.60;;;;;;;;;;5033111;28;20210;-27
2023/07/01 00:14:52;;;;;;;4.57;3.37;;;;;;;;;;5032936;28;20706;-25
2023/07/01 00:17:20;;;;;;;4.03;3.63;;;;;;;;;;5032450;28;20199;-27
2023/07/01 00:19:48;;;;;;;4.73;3.20;;;;;;;;;;5021937;28;20285;-27
2023/07/01 00:22:15;;;;;;;4.40;3.47;;;;;;;;;;5029334;28;20206;-27
2023/07/01 00:24:42;;;;;;;5.27;3.00;;;;;;;;;;5022019;28;20213;-25
2023/07/01 00:27:09;;;;;;;4.23;3.27;;;;;;;;;;5023094;28;20213;-27
2023/07/01 00:29:36;;;;;;;5.17;3.47;;;;;;;;;;5029404;28;20229;-25
2023/07/01 00:32:03;;;;;;;4.37;3.37;;;;;;;;;;5029519;28;20209;-24
2023/07/01 00:34:32;;;;;;;4.63;3.50;;;;;;;;;;5017519;28;20279;-26
2023/07/01 00:36:59;;;;;;;4.13;3.10;;;;;;;;;;5028575;28;20574;-28
2023/07/01 00:39:26;;;;;;;4.80;3.33;;;;;;;;;;5019537;28;20233;-29
2023/07/01 00:41:54;;;;;;;4.20;3.20;;;;;;;;;;5027150;28;20225;-25
2023/07/01 00:44:21;;;;;;;7.17;3.63;;;;;;;;;;5032405;28;20202;-28
2023/07/01 00:46:48;;;;;;;3.67;3.30;;;;;;;;;;5035898;28;20220;-24
2023/07/01 00:49:15;;;;;;;4.23;3.23;;;;;;;;;;5024343;28;20599;-26
2023/07/01 00:51:44;;;;;;;4.50;3.33;;;;;;;;;;5042391;28;20205;-24
2023/07/01 00:54:11;;;;;;;3.63;2.80;;;;;;;;;;5067128;28;20217;-25
2023/07/01 00:56:38;;;;;;;3.20;2.90;;;;;;;;;;5068238;28;20229;-29
2023/07/01 00:59:06;;;;;;;4.40;3.40;;;;;;;;;;5073292;28;20227;-28
2023/07/01 01:01:36;;;;;;;6.00;3.37;;;;;;;;;;5064283;28;20237;-25
2023/07/01 01:04:07;;;;;;;5.73;3.50;;;;;;;;;;5072600;28;20201;-28
2023/07/01 01:06:38;;;;;;;6.43;3.33;;;;;;;;;;5075762;28;20200;-27
2023/07/01 01:09:10;;;;;;;4.00;3.33;;;;;;;;;;5069917;28;20228;-28
2023/07/01 01:11:38;;;;;;;4.70;3.40;;;;;;;;;;5075987;28;20200;-26
2023/07/01 01:14:06;;;;;;;6.07;3.40;;;;;;;;;;5075610;28;20209;-26
2023/07/01 01:16:34;;;;;;;3.80;3.03;;;;;;;;;;5076023;28;20244;-27
2023/07/01 01:19:02;;;;;;;4.93;3.17;;;;;;;;;;5061689;28;20733;-26
2023/07/01 01:21:29;;;;;;;6.80;3.27;;;;;;;;;;5064648;28;20222;-24
2023/07/01 01:24:00;;;;;;;4.57;2.80;;;;;;;;;;5067051;28;20466;-25
2023/07/01 01:26:29;;;;;;;5.23;3.40;;;;;;;;;;5059350;28;20208;-28
2023/07/01 01:28:58;;;;;;;4.37;3.07;;;;;;;;;;5072415;28;20314;-27
2023/07/01 01:31:25;;;;;;;4.33;3.27;;;;;;;;;;5072837;28;20643;-26
2023/07/01 01:33:52;;;;;;;4.43;3.13;;;;;;;;;;5065546;28;20205;-25
2023/07/01 01:36:22;;;;;;;3.90;2.80;;;;;;;;;;5070201;28;20201;-24
2023/07/01 01:38:50;;;;;;;3.27;2.73;;;;;;;;;;5067294;28;20396;-26
2023/07/01 01:41:19;;;;;;;4.07;2.70;;;;;;;;;;5070668;28;20227;-26
2023/07/01 01:43:48;;;;;;;3.70;2.43;;;;;;;;;;5075360;28;20806;-25
2023/07/01 01:46:17;;;;;;;3.93;2.93;;;;;;;;;;5075548;28;20203;-25
2023/07/01 01:48:45;;;;;;;3.00;2.67;;;;;;;;;;5069578;28;20234;-26
2023/07/01 01:51:14;;;;;;;5.10;2.67;;;;;;;;;;5071398;28;20261;-26
2023/07/01 01:53:42;;;;;;;3.93;2.83;;;;;;;;;;5070124;28;20204;-29
2023/07/01 01:56:09;;;;;;;2.97;2.67;;;;;;;;;;5059749;28;20214;-29
2023/07/01 01:58:36;;;;;;;6.60;2.60;;;;;;;;;;5071627;28;20230;-24
2023/07/01 02:01:03;;;;;;;3.80;2.77;;;;;;;;;;5072125;28;20319;-29
2023/07/01 02:03:32;;;;;;;3.00;2.70;;;;;;;;;;5065407;28;20201;-26
2023/07/01 02:05:59;;;;;;;4.90;2.83;;;;;;;;;;5067284;28;20435;-25
2023/07/01 02:08:26;;;;;;;4.13;2.80;;;;;;;;;;5071266;28;20238;-24
2023/07/01 02:10:53;;;;;;;5.07;2.50;;;;;;;;;;5064923;28;20199;-28
2023/07/01 02:13:20;;;;;;;3.10;2.80;;;;;;;;;;5074668;28;20207;-27
2023/07/01 02:15:47;;;;;;;4.13;2.70;;;;;;;;;;5075627;28;20224;-26
2023/07/01 02:18:14;;;;;;;4.47;2.37;;;;;;;;;;5070641;28;20231;-26
2023/07/01 02:20:43;;;;;;;3.23;2.47;;;;;;;;;;5069441;28;20234;-27
2023/07/01 02:23:10;;;;;;;2.63;2.20;;;;;;;;;;5071484;28;20203;-24
2023/07/01 02:25:37;;;;;;;4.07;2.67;;;;;;;;;;5062105;28;20685;-28
2023/07/01 02:28:04;;;;;;;3.37;2.70;;;;;;;;;;5067687;28;20223;-28
2023/07/01 02:30:32;;;;;;;4.33;2.57;;;;;;;;;;5071741;28;20203;-28
2023/07/01 02:32:59;;;;;;;6.03;2.83;;;;;;;;;;5062999;28;20303;-26
2023/07/01 02:35:26;;;;;;;4.83;2.97;;;;;;;;;;5064835;28;20202;-28
2023/07/01 02:37:54;;;;;;;3.33;2.30;;;;;;;;;;5073265;28;20634;-25
2023/07/01 02:40:22;;;;;;;3.07;2.77;;;;;;;;;;5066739;28;20219;-26
2023/07/01 02:42:49;;;;;;;4.50;2.50;;;;;;;;;;5071514;28;20222;-26
2023/07/01 02:45:16;;;;;;;4.20;2.70;;;;;;;;;;5074563;28;20200;-25
2023/07/01 02:47:43;;;;;;;2.43;2.20;;;;;;;;;;5069914;28;20230;-25
2023/07/01 02:50:10;;;;;;;4.03;3.10;;;;;;;;;;5064747;28;20668;-25
2023/07/01 02:52:37;;;;;;;3.30;2.87;;;;;;;;;;5073944;28;20216;-27
2023/07/01 02:55:07;;;;;;;3.97;2.67;;;;;;;;;;5069156;28;20211;-26
2023/07/01 02:57:34;;;;;;;4.83;2.50;;;;;;;;;;5070220;28;20293;-27
2023/07/01 03:00:01;;;;;;;5.47;2.47;;;;;;;;;;5074460;28;20211;-26
2023/07/01 03:02:28;;;;;;;2.17;1.97;;;;;;;;;;5071251;28;20223;-28
2023/07/01 03:04:55;;;;;;;3.97;2.67;;;;;;;;;;5060041;28;20295;-27
2023/07/01 03:07:22;;;;;;;5.87;2.50;;;;;;;;;;5072457;28;20207;-24
2023/07/01 03:09:49;;;;;;;2.50;2.27;;;;;;;;;;5066126;28;20230;-25
2023/07/01 03:12:18;;;;;;;5.23;2.60;;;;;;;;;;5068853;28;20568;-25
2023/07/01 03:14:45;;;;;;;3.20;2.30;;;;;;;;;;5073401;28;20206;-26
2023/07/01 03:17:12;;;;;;;3.63;2.53;;;;;;;;;;5068999;28;20208;-28
2023/07/01 03:19:40;;;;;;;2.70;2.17;;;;;;;;;;5066841;28;20234;-25
2023/07/01 03:22:08;;;;;;;3.33;2.50;;;;;;;;;;5070506;28;20284;-27
2023/07/01 03:24:35;;;;;;;3.87;2.50;;;;;;;;;;5067252;28;20195;-27
2023/07/01 03:27:03;;;;;;;5.43;2.60;;;;;;;;;;5069681;28;20208;-25
2023/07/01 03:29:31;;;;;;;3.23;2.30;;;;;;;;;;5070191;28;20218;-25
2023/07/01 03:31:58;;;;;;;4.50;2.57;;;;;;;;;;5071097;28;20210;-26
2023/07/01 03:34:25;;;;;;;2.43;2.23;;;;;;;;;;5057988;28;20203;-25
2023/07/01 03:36:53;;;;;;;3.80;2.40;;;;;;;;;;5070739;28;20199;-25
2023/07/01 03:39:20;;;;;;;6.57;2.20;;;;;;;;;;5063219;28;20227;-23
2023/07/01 03:41:47;;;;;;;2.97;2.30;;;;;;;;;;5067499;28;20222;-24
2023/07/01 03:44:14;;;;;;;2.70;2.20;;;;;;;;;;5073038;28;20211;-25
2023/07/01 03:46:43;;;;;;;2.97;2.47;;;;;;;;;;5071778;28;20210;-27
2023/07/01 03:49:11;;;;;;;2.67;2.47;;;;;;;;;;5062990;28;20235;-26
2023/07/01 03:51:38;;;;;;;5.87;2.40;;;;;;;;;;5073121;28;20295;-22
2023/07/01 03:54:06;;;;;;;5.27;2.57;;;;;;;;;;5067491;28;20568;-26
2023/07/01 03:56:33;;;;;;;2.90;2.37;;;;;;;;;;5068514;28;20200;-23
2023/07/01 03:59:00;;;;;;;3.47;2.60;;;;;;;;;;5072855;28;20238;-24
2023/07/01 04:01:27;;;;;;;3.50;2.43;;;;;;;;;;5073324;28;20225;-26
2023/07/01 04:03:55;;;;;;;2.50;2.30;;;;;;;;;;5068940;28;20203;-25
2023/07/01 04:06:23;;;;;;;2.63;2.30;;;;;;;;;;5064300;28;20241;-27
2023/07/01 04:08:54;;;;;;;5.87;2.70;;;;;;;;;;5064870;28;20227;-26
2023/07/01 04:11:21;;;;;;;3.50;2.33;;;;;;;;;;5062484;28;20207;-24
2023/07/01 04:13:49;;;;;;;2.47;2.27;;;;;;;;;;5072671;28;20207;-27
2023/07/01 04:16:16;;;;;;;2.50;2.23;;;;;;;;;;5072933;28;20218;-28
2023/07/01 04:18:43;;;;;;;4.93;2.50;;;;;;;;;;5068886;28;20231;-27
2023/07/01 04:21:11;;;;;;;2.30;2.10;;;;;;;;;;5067052;28;20211;-27
2023/07/01 04:23:38;;;;;;;4.93;2.87;;;;;;;;;;5071139;28;20212;-25
2023/07/01 04:26:06;;;;;;;4.90;2.07;;;;;;;;;;5062406;28;20420;-25
2023/07/01 04:28:33;;;;;;;7.03;2.60;;;;;;;;;;5072562;28;20220;-24
2023/07/01 04:31:00;;;;;;;3.93;2.40;;;;;;;;;;5073079;28;20207;-26
2023/07/01 04:33:27;;;;;;;3.03;2.40;;;;;;;;;;5068786;28;20198;-25
2023/07/01 04:35:54;;;;;;;3.37;2.50;;;;;;;;;;5072156;28;20641;-25
2023/07/01 04:38:23;;;;;;;2.93;2.20;;;;;;;;;;5072396;28;20233;-26
2023/07/01 04:40:50;;;;;;;2.77;2.47;;;;;;;;;;5059424;28;20203;-24
2023/07/01 04:43:17;;;;;;;3.10;2.43;;;;;;;;;;5070334;28;20334;-26
2023/07/01 04:45:44;;;;;;;3.03;2.20;;;;;;;;;;5072576;28;20353;-27
2023/07/01 04:48:12;;;;;;;2.30;2.10;;;;;;;;;;5066757;28;20226;-25
2023/07/01 04:50:39;;;;;;;2.47;2.13;;;;;;;;;;5066448;28;20201;-27
2023/07/01 04:53:06;;;;;;;3.10;2.37;;;;;;;;;;5072432;28;20229;-24
2023/07/01 04:55:35;;;;;;;3.37;2.43;;;;;;;;;;5064178;28;20205;-27
2023/07/01 04:58:02;;;;;;;3.70;2.80;;;;;;;;;;5067905;28;20220;-25
2023/07/01 05:00:29;;;;;;;5.00;2.60;;;;;;;;;;5052656;28;20208;-24
2023/07/01 05:02:56;;;;;;;4.13;2.90;;;;;;;;;;5052053;28;20231;-26
2023/07/01 05:05:24;;;;;;;5.33;2.63;;;;;;;;;;5063692;28;20221;-24
2023/07/01 05:07:51;;;;;;;3.03;2.73;;;;;;;;;;5071373;28;20223;-24
2023/07/01 05:10:18;;;;;;;4.00;2.40;;;;;;;;;;5067451;28;20375;-25
2023/07/01 05:12:46;;;;;;;4.20;2.50;;;;;;;;;;5071446;28;20206;-23
2023/07/01 05:15:13;;;;;;;6.47;2.53;;;;;;;;;;5069866;28;20202;-27
2023/07/01 05:17:40;;;;;;;2.90;2.57;;;;;;;;;;5066726;28;20227;-26
2023/07/01 05:20:08;;;;;;;3.03;2.60;;;;;;;;;;5064287;28;20216;-26
2023/07/01 05:22:36;;;;;;;3.30;2.40;;;;;;;;;;5071900;28;20301;-27
2023/07/01 05:25:03;;;;;;;4.53;2.73;;;;;;;;;;5064528;28;20217;-26
2023/07/01 05:27:30;;;;;;;2.70;2.50;;;;;;;;;;5070695;28;20201;-28
2023/07/01 05:29:59;;;;;;;4.53;2.50;;;;;;;;;;5072185;28;20205;-25
2023/07/01 05:32:26;;;;;;;2.63;2.42;;;;;;;;;;5075348;28;20201;-27
2023/07/01 05:34:54;;;;;;;3.30;2.53;;;;;;;;;;5067270;28;20205;-27
2023/07/01 05:37:21;;;;;;;6.38;3.08;;;;;;;;;;5074525;28;20209;-28
2023/07/01 05:39:48;;;;;;;3.92;2.83;;;;;;;;;;5071430;28;20205;-25
2023/07/01 05:42:15;;;;;;;3.72;2.83;;;;;;;;;;5074825;28;20656;-26
2023/07/01 05:44:42;;;;;;;5.15;2.95;;;;;;;;;;5074840;28;20200;-25
2023/07/01 05:47:10;;;;;;;3.83;2.80;;;;;;;;;;5070801;28;20209;-27
2023/07/01 05:49:37;;;;;;;4.53;2.88;;;;;;;;;;5065262;28;20217;-27
2023/07/01 05:52:05;;;;;;;6.90;3.05;;;;;;;;;;5074540;28;20210;-27
2023/07/01 05:54:32;;;;;;;4.95;3.15;;;;;;;;;;5164823;23;20235;-28
2023/07/01 05:56:59;;;;;;;2.85;2.40;;;;;;;;;;5086764;28;20192;-28
2023/07/01 05:59:26;;;;;;;4.22;2.45;;;;;;;;;;5101290;28;20221;-24
2023/07/01 06:01:53;;;;;;;4.60;2.90;;;;;;;;;;5096187;28;20219;-23
2023/07/01 06:04:22;;;;;;;3.63;2.30;;;;;;;;;;5098965;28;20211;-25
2023/07/01 06:06:49;;;;;;;3.30;2.95;;;;;;;;;;5097629;28;20208;-24
2023/07/01 06:09:17;;;;;;;2.75;2.05;;;;;;;;;;5096620;28;20220;-23
2023/07/01 06:11:44;;;;;;;4.22;2.58;;;;;;;;;;5095599;28;20204;-28
2023/07/01 06:14:11;;;;;;;2.47;2.00;;;;;;;;;;5102377;28;20200;-26
2023/07/01 06:16:38;;;;;;;4.90;2.85;;;;;;;;;;5114549;28;20207;-23
2023/07/01 06:19:05;;;;;;;4.07;2.33;;;;;;;;;;5103935;28;20224;-26
2023/07/01 06:21:34;;;;;;;2.70;2.50;;;;;;;;;;5105600;28;20294;-25
2023/07/01 06:24:01;;;;;;;3.45;2.33;;;;;;;;;;5105437;28;20224;-26
2023/07/01 06:26:28;;;;;;;2.63;2.42;;;;;;;;;;5093298;28;20207;-25
2023/07/01 06:28:55;;;;;;;2.42;2.22;;;;;;;;;;5094217;28;20220;-26
2023/07/01 06:31:22;;;;;;;2.42;2.22;;;;;;;;;;5094993;28;20208;-24
2023/07/01 06:33:49;;;;;;;4.22;1.80;;;;;;;;;;5095632;28;20642;-27
2023/07/01 06:36:17;;;;;;;2.10;1.95;;;;;;;;;;5097132;28;20204;-26
2023/07/01 06:38:48;;;;;;;3.05;1.88;;;;;;;;;;5110887;28;20216;-27
2023/07/01 06:41:16;;;;;;;4.43;2.38;;;;;;;;;;5107306;28;20216;-23
2023/07/01 06:43:43;;;;;;;4.28;2.20;;;;;;;;;;5105300;28;20223;-27
2023/07/01 06:46:10;;;;;;;3.53;1.98;;;;;;;;;;5114712;28;20269;-24
2023/07/01 06:48:37;;;;;;;5.15;2.03;;;;;;;;;;5099256;28;20305;-25
2023/07/01 06:51:04;;;;;;;2.28;2.08;;;;;;;;;;5101922;28;20202;-28
2023/07/01 06:53:32;;;;;;;3.15;2.28;;;;;;;;;;5092853;28;20211;-25
2023/07/01 06:56:00;;;;;;;2.65;2.25;;;;;;;;;;5108311;28;20213;-27
2023/07/01 06:58:27;;;;;;;2.03;1.90;;;;;;;;;;5093630;28;20216;-26
2023/07/01 07:00:54;;;;;;;1.98;1.80;;;;;;;;;;5094857;28;20202;-25
2023/07/01 07:03:21;;;;;;;3.25;1.98;;;;;;;;;;5099608;28;20230;-25
2023/07/01 07:05:49;;;;;;;3.50;1.80;;;;;;;;;;5105225;28;20198;-32
2023/07/01 07:08:16;;;;;;;3.92;2.00;;;;;;;;;;5095712;28;20316;-26
2023/07/01 07:10:43;;;;;;;2.28;2.08;;;;;;;;;;5103966;28;20199;-28
2023/07/01 07:13:12;;;;;;;2.10;1.90;;;;;;;;;;5111864;28;20206;-26
2023/07/01 07:15:39;;;;;;;5.82;2.55;;;;;;;;;;5114179;28;20208;-26
2023/07/01 07:18:08;;;;;;;5.72;1.85;;;;;;;;;;5102629;28;20230;-23
2023/07/01 07:20:35;;;;;;;5.55;1.63;;;;;;;;;;5097890;28;20194;-27
2023/07/01 07:23:04;;;;;;;3.25;2.00;;;;;;;;;;5114559;28;20219;-26
2023/07/01 07:25:31;;;;;;;2.15;1.67;;;;;;;;;;5104833;28;20206;-25
2023/07/01 07:27:58;;;;;;;3.88;1.60;;;;;;;;;;5113443;28;20231;-28
2023/07/01 07:30:26;;;;;;;1.92;1.83;;;;;;;;;;5094505;28;20206;-24
2023/07/01 07:32:53;;;;;;;1.73;1.60;;;;;;;;;;5094932;28;20192;-27
2023/07/01 07:35:21;;;;;;;2.72;2.05;;;;;;;;;;5101769;28;20209;-27
2023/07/01 07:37:48;;;;;;;2.10;1.50;;;;;;;;;;5093326;28;20220;-26
2023/07/01 07:40:15;;;;;;;2.03;1.83;;;;;;;;;;5094179;28;20214;-25
2023/07/01 07:42:43;;;;;;;5.43;1.60;;;;;;;;;;5100511;28;20247;-28
2023/07/01 07:45:10;;;;;;;2.00;1.80;;;;;;;;;;5094320;28;20208;-28
2023/07/01 07:47:39;;;;;;;2.38;1.67;;;;;;;;;;5093482;28;20223;-26
2023/07/01 07:50:06;;;;;;;2.75;1.80;;;;;;;;;;5094120;28;20211;-24
2023/07/01 07:52:33;;;;;;;3.35;1.67;;;;;;;;;;5099594;28;20285;-28
2023/07/01 07:55:01;;;;;;;2.03;1.85;;;;;;;;;;5102579;28;20219;-29
2023/07/01 07:57:28;;;;;;;3.25;1.65;;;;;;;;;;5103337;28;20199;-26
2023/07/01 07:59:55;;;;;;;4.10;1.83;;;;;;;;;;5096630;28;20208;-28
2023/07/01 08:02:22;;;;;;;3.40;1.65;;;;;;;;;;5091835;28;20200;-25
2023/07/01 08:04:51;;;;;;;1.80;1.58;;;;;;;;;;5101914;28;20214;-29
2023/07/01 08:07:18;;;;;;;1.63;1.40;;;;;;;;;;5104421;28;20217;-27
2023/07/01 08:09:45;;;;;;;1.90;1.67;;;;;;;;;;5106453;28;20218;-27
2023/07/01 08:12:12;;;;;;;2.83;1.55;;;;;;;;;;5109439;28;20211;-26
2023/07/01 08:14:39;;;;;;;1.70;1.60;;;;;;;;;;5112959;28;20199;-28
2023/07/01 08:17:06;;;;;;;4.97;2.35;;;;;;;;;;5112759;28;20206;-28
2023/07/01 08:19:34;;;;;;;2.00;1.60;;;;;;;;;;5093288;28;20218;-28
2023/07/01 08:22:02;;;;;;;2.22;1.75;;;;;;;;;;5105011;28;20256;-27
2023/07/01 08:24:30;;;;;;;2.38;1.52;;;;;;;;;;5097154;28;20219;-28
2023/07/01 08:26:59;;;;;;;3.67;1.90;;;;;;;;;;5097005;28;20216;-27
2023/07/01 08:29:26;;;;;;;2.83;1.75;;;;;;;;;;5109577;28;20229;-26
2023/07/01 08:31:54;;;;;;;1.40;1.38;;;;;;;;;;5109747;28;20264;-25
2023/07/01 08:34:21;;;;;;;2.90;1.63;;;;;;;;;;5093315;28;20202;-27
2023/07/01 08:36:48;;;;;;;1.95;1.70;;;;;;;;;;5100810;28;20227;-26
2023/07/01 08:39:17;;;;;;;2.22;1.80;;;;;;;;;;5100944;28;20289;-25
2023/07/01 08:41:47;;;;;;;2.03;1.63;;;;;;;;;;5111632;28;20206;-25
2023/07/01 08:44:14;;;;;;;3.33;1.58;;;;;;;;;;5112122;28;20225;-27
2023/07/01 08:46:42;;;;;;;1.55;1.45;;;;;;;;;;5111484;28;20213;-26
2023/07/01 08:49:09;;;;;;;1.73;1.55;;;;;;;;;;5102682;28;20314;-28
2023/07/01 08:51:39;;;;;;;3.20;1.88;;;;;;;;;;5107758;28;20202;-24
2023/07/01 08:54:06;;;;;;;5.97;1.90;;;;;;;;;;5103397;28;20221;-26
2023/07/01 08:56:35;;;;;;;3.50;1.50;;;;;;;;;;5103896;28;20202;-28
2023/07/01 08:59:09;;;;;;;2.30;1.48;;;;;;;;;;5100382;28;20220;-25
2023/07/01 09:01:38;;;;;;;2.47;1.95;;;;;;;;;;5092560;28;20221;-25
2023/07/01 09:04:05;;;;;;;4.75;1.75;;;;;;;;;;5099228;28;20255;-26
2023/07/01 09:06:32;;;;;;;3.88;2.20;;;;;;;;;;5106974;28;20217;-22
2023/07/01 09:08:59;;;;;;;1.70;1.60;;;;;;;;;;5111721;28;20230;-26
2023/07/01 09:11:26;;;;;;;1.65;1.55;;;;;;;;;;5103155;28;20210;-27
2023/07/01 09:13:58;;;;;;;3.65;1.77;;;;;;;;;;5096250;28;20202;-24
2023/07/01 09:16:33;;;;;;;1.85;1.75;;;;;;;;;;5096055;28;20210;-24
2023/07/01 09:19:04;;;;;;;1.60;1.48;;;;;;;;;;5094975;28;20229;-24
2023/07/01 09:21:35;;;;;;;5.95;1.90;;;;;;;;;;5105398;28;20219;-28
2023/07/01 09:24:05;;;;;;;2.72;1.80;;;;;;;;;;5100441;28;20302;-23
2023/07/01 09:26:32;;;;;;;4.63;1.70;;;;;;;;;;5095347;28;20630;-27
2023/07/01 09:29:01;;;;;;;2.50;1.83;;;;;;;;;;5095468;28;20538;-25
2023/07/01 09:31:28;;;;;;;2.50;1.90;;;;;;;;;;5095096;28;20237;-25
2023/07/01 09:33:59;;;;;;;1.80;1.48;;;;;;;;;;5103401;28;20199;-25
2023/07/01 09:36:27;;;;;;;2.97;1.70;;;;;;;;;;5103226;28;20206;-25
2023/07/01 09:38:54;;;;;;;2.00;1.88;;;;;;;;;;5092584;28;20225;-26
2023/07/01 09:41:23;;;;;;;1.67;1.58;;;;;;;;;;5098279;28;20298;-26
2023/07/01 09:43:51;;;;;;;1.80;1.55;;;;;;;;;;5108729;28;20559;-27
2023/07/01 09:46:19;;;;;;;1.70;1.50;;;;;;;;;;5103853;28;20206;-27
2023/07/01 09:48:53;;;;;;;1.58;1.48;;;;;;;;;;5099555;28;20234;-25
2023/07/01 09:51:20;;;;;;;2.75;2.30;;;;;;;;;;5105790;28;20206;-27
2023/07/01 09:53:48;;;;;;;1.67;1.58;;;;;;;;;;5093856;28;20204;-25
2023/07/01 09:56:17;;;;;;;2.83;1.60;;;;;;;;;;5096522;28;20305;-27
2023/07/01 09:58:44;;;;;;;5.05;1.60;;;;;;;;;;5097800;28;20461;-28
2023/07/01 10:01:12;;;;;;;4.63;1.50;;;;;;;;;;5103430;28;20197;-31
2023/07/01 10:03:41;;;;;;;1.73;1.60;;;;;;;;;;5109073;28;20231;-26
2023/07/01 10:06:08;;;;;;;1.73;1.63;;;;;;;;;;5103280;28;20249;-26
2023/07/01 10:08:35;;;;;;;3.47;1.58;;;;;;;;;;5113323;28;20237;-29
2023/07/01 10:11:03;;;;;;;2.70;1.50;;;;;;;;;;5108132;28;20216;-24
2023/07/01 10:13:32;;;;;;;1.55;1.40;;;;;;;;;;5095998;28;20203;-25
2023/07/01 10:16:02;;;;;;;1.60;1.50;;;;;;;;;;5096049;28;20214;-28
2023/07/01 10:18:30;;;;;;;2.47;1.45;;;;;;;;;;5097289;28;20591;-25
2023/07/01 10:21:21;;;;;;;2.92;1.45;;;;;;;;;;5110378;28;20202;-25
2023/07/01 10:23:49;;;;;;;1.85;1.50;;;;;;;;;;5092530;28;20228;-27
2023/07/01 10:26:35;;;;;;;1.67;1.40;;;;;;;;;;5107689;28;20297;-24
2023/07/01 10:29:22;;;;;;;2.13;1.48;;;;;;;;;;5114461;28;20222;-25
2023/07/01 10:32:04;;;;;;;5.07;1.50;;;;;;;;;;5114826;28;20206;-27
2023/07/01 10:34:46;;;;;;;2.05;1.33;;;;;;;;;;5104567;28;20228;-23
2023/07/01 10:37:14;;;;;;;4.07;2.53;;;;;;;;;;5105562;28;20210;-22
2023/07/01 10:39:42;;;;;;;3.10;1.80;;;;;;;;;;5097020;28;20660;-25
2023/07/01 10:42:11;;;;;;;2.35;1.33;;;;;;;;;;5103351;28;20215;-27
2023/07/01 10:44:47;;;;;;;1.75;1.20;;;;;;;;;;5107161;28;20222;-25
2023/07/01 10:47:18;;;;;;;4.90;1.85;;;;;;;;;;5111892;28;20199;-26
2023/07/01 10:50:01;;;;;;;3.80;1.40;;;;;;;;;;5095412;28;20359;-24
2023/07/01 10:52:29;;;;;;;2.10;1.25;;;;;;;;;;5113741;28;20204;-27
2023/07/01 10:54:56;;;;;;;2.13;1.67;;;;;;;;;;5098527;28;20680;-24
2023/07/01 10:57:24;;;;;;;2.47;1.38;;;;;;;;;;5092682;28;20210;-27
2023/07/01 10:59:51;;;;;;;1.88;1.38;;;;;;;;;;5093956;28;20266;-25
2023/07/01 11:02:38;;;;;;;1.50;1.40;;;;;;;;;;5093922;28;20292;-27
2023/07/01 11:05:06;;;;;;;7.55;1.70;;;;;;;;;;5093592;28;20227;-28
2023/07/01 11:07:41;;;;;;;2.78;1.55;;;;;;;;;;5102818;28;20210;-26
2023/07/01 11:10:09;;;;;;;2.75;1.70;;;;;;;;;;5099733;28;20207;-24
2023/07/01 11:12:36;;;;;;;1.73;1.30;;;;;;;;;;5102294;28;20236;-28
2023/07/01 11:15:03;;;;;;;1.30;1.20;;;;;;;;;;5110282;28;20203;-25
2023/07/01 11:17:30;;;;;;;2.63;1.67;;;;;;;;;;5112143;28;20206;-25
2023/07/01 11:19:58;;;;;;;1.60;1.50;;;;;;;;;;5108740;28;20206;-24
2023/07/01 11:22:26;;;;;;;3.50;1.38;;;;;;;;;;5110131;28;20218;-24
2023/07/01 11:24:54;;;;;;;3.38;1.35;;;;;;;;;;5093021;28;20222;-26
2023/07/01 11:27:23;;;;;;;1.92;1.30;;;;;;;;;;5102663;28;20210;-25
2023/07/01 11:29:50;;;;;;;1.63;1.20;;;;;;;;;;5092532;28;20202;-25
2023/07/01 11:32:17;;;;;;;1.98;1.20;;;;;;;;;;5093708;28;20205;-26
2023/07/01 11:34:46;;;;;;;1.60;1.50;;;;;;;;;;5098696;28;20267;-27
2023/07/01 11:37:23;;;;;;;2.50;1.70;;;;;;;;;;5112628;28;20210;-24
2023/07/01 11:39:51;;;;;;;1.33;1.20;;;;;;;;;;5106671;28;20205;-26
2023/07/01 11:42:21;;;;;;;1.20;1.10;;;;;;;;;;5102741;28;20299;-24
2023/07/01 11:44:50;;;;;;;2.60;1.40;;;;;;;;;;5094578;28;20212;-26
2023/07/01 11:47:17;;;;;;;3.33;1.50;;;;;;;;;;5091503;28;20633;-26
2023/07/01 11:49:44;;;;;;;1.52;1.40;;;;;;;;;;5106538;28;20672;-25
2023/07/01 11:52:23;;;;;;;2.40;1.45;;;;;;;;;;5095521;28;20211;-25
2023/07/01 11:54:52;;;;;;;2.88;1.70;;;;;;;;;;5096908;28;20212;-28
2023/07/01 11:57:20;;;;;;;2.22;1.95;;;;;;;;;;5097319;28;20219;-27
2023/07/01 11:59:49;;;;;;;2.22;1.90;;;;;;;;;;5107752;28;20562;-26
2023/07/01 12:02:17;;;;;;;1.70;1.55;;;;;;;;;;5110680;28;20198;-27
2023/07/01 12:04:44;;;;;;;3.25;1.70;;;;;;;;;;5104037;28;20219;-24
2023/07/01 12:07:12;;;;;;;2.83;1.98;;;;;;;;;;5186577;23;20716;-25
2023/07/01 12:09:40;;;;;;;1.80;1.70;;;;;;;;;;5081617;28;20223;-25
2023/07/01 12:12:08;;;;;;;2.42;1.83;;;;;;;;;;5086913;28;20248;-27
2023/07/01 12:14:35;;;;;;;3.15;1.80;;;;;;;;;;5092367;28;20238;-26
2023/07/01 12:17:04;;;;;;;1.85;1.75;;;;;;;;;;5092552;28;20207;-28
2023/07/01 12:19:32;;;;;;;1.63;1.52;;;;;;;;;;5082455;28;20219;-24
2023/07/01 12:22:00;;;;;;;3.38;1.70;;;;;;;;;;5082003;28;20207;-27
2023/07/01 12:24:28;;;;;;;2.88;1.92;;;;;;;;;;5086487;28;20230;-27
2023/07/01 12:26:56;;;;;;;6.43;2.00;;;;;;;;;;5079353;28;20214;-27
2023/07/01 12:29:23;;;;;;;2.00;1.80;;;;;;;;;;5072425;28;20223;-25
2023/07/01 12:31:50;;;;;;;2.70;2.20;;;;;;;;;;5072439;28;20581;-25
2023/07/01 12:34:19;;;;;;;6.15;2.10;;;;;;;;;;5075143;28;20206;-26
2023/07/01 12:36:46;;;;;;;2.10;1.90;;;;;;;;;;5077430;28;20212;-27
2023/07/01 12:39:13;;;;;;;5.22;1.70;;;;;;;;;;5072641;28;20224;-26
2023/07/01 12:41:41;;;;;;;2.15;1.85;;;;;;;;;;5086908;28;20206;-26
2023/07/01 12:44:09;;;;;;;6.88;2.08;;;;;;;;;;5085134;28;20218;-28
2023/07/01 12:46:38;;;;;;;2.42;2.03;;;;;;;;;;5093712;28;20206;-27
2023/07/01 12:49:06;;;;;;;2.08;1.80;;;;;;;;;;5087165;28;20252;-26
2023/07/01 12:51:37;;;;;;;3.63;1.83;;;;;;;;;;5072773;28;20200;-23
2023/07/01 12:54:05;;;;;;;1.77;1.52;;;;;;;;;;5077433;28;20199;-24
2023/07/01 12:56:32;;;;;;;2.30;1.70;;;;;;;;;;5079821;28;20199;-26
2023/07/01 12:58:59;;;;;;;2.10;1.90;;;;;;;;;;5080099;28;20219;-27
2023/07/01 13:01:26;;;;;;;2.75;1.50;;;;;;;;;;5072238;28;20211;-26
2023/07/01 13:03:53;;;;;;;7.10;1.95;;;;;;;;;;5077205;28;20215;-27
2023/07/01 13:06:25;;;;;;;2.45;1.40;;;;;;;;;;5085424;28;20215;-24
2023/07/01 13:08:54;;;;;;;1.73;1.58;;;;;;;;;;5091369;28;20241;-24
2023/07/01 13:11:21;;;;;;;1.98;1.40;;;;;;;;;;5101368;28;20206;-25
2023/07/01 13:13:49;;;;;;;1.77;1.20;;;;;;;;;;5111998;28;20196;-25
2023/07/01 13:16:28;;;;;;;1.55;1.45;;;;;;;;;;5112295;28;20237;-23
2023/07/01 13:18:56;;;;;;;2.33;1.23;;;;;;;;;;5106890;28;20227;-26
2023/07/01 13:21:23;;;;;;;2.15;1.40;;;;;;;;;;5100194;28;20256;-24
2023/07/01 13:23:53;;;;;;;2.83;1.42;;;;;;;;;;5102650;28;20207;-26
2023/07/01 13:26:22;;;;;;;1.10;1.10;;;;;;;;;;5096449;28;20207;-26
2023/07/01 13:28:49;;;;;;;3.90;1.60;;;;;;;;;;5106010;28;20224;-24
2023/07/01 13:31:21;;;;;;;3.17;1.40;;;;;;;;;;5091903;28;20221;-23
2023/07/01 13:33:48;;;;;;;3.28;1.58;;;;;;;;;;5093939;28;20198;-25
2023/07/01 13:36:17;;;;;;;1.40;1.20;;;;;;;;;;5097061;28;20208;-24
2023/07/01 13:38:46;;;;;;;2.95;1.30;;;;;;;;;;5099467;28;20213;-26
2023/07/01 13:41:14;;;;;;;2.28;1.42;;;;;;;;;;5104542;28;20238;-25
2023/07/01 13:43:44;;;;;;;2.53;1.27;;;;;;;;;;5096827;28;20192;-27
2023/07/01 13:46:11;;;;;;;2.30;1.20;;;;;;;;;;5111989;28;20226;-28
2023/07/01 13:48:42;;;;;;;1.90;1.15;;;;;;;;;;5106276;28;20220;-24
2023/07/01 13:51:09;;;;;;;2.05;1.20;;;;;;;;;;5103591;28;20209;-23
2023/07/01 13:53:37;;;;;;;1.60;1.35;;;;;;;;;;5093063;28;20220;-29
2023/07/01 13:56:04;;;;;;;1.98;1.13;;;;;;;;;;5108994;28;20536;-26
2023/07/01 13:58:31;;;;;;;1.10;1.00;;;;;;;;;;5094939;28;20221;-25
2023/07/01 14:01:00;;;;;;;1.55;1.20;;;;;;;;;;5095394;28;20659;-24
2023/07/01 14:03:42;;;;;;;0.88;0.88;;;;;;;;;;5096102;28;20200;-24
2023/07/01 14:06:10;;;;;;;5.22;1.20;;;;;;;;;;5091950;28;20235;-25
2023/07/01 14:08:37;;;;;;;1.80;0.90;;;;;;;;;;5091152;28;20231;-25
2023/07/01 14:11:04;;;;;;;1.98;0.77;;;;;;;;;;5106174;28;20204;-23
2023/07/01 14:13:31;;;;;;;1.25;0.82;;;;;;;;;;5095507;28;20292;-24
2023/07/01 14:15:59;;;;;;;1.08;1.00;;;;;;;;;;5093763;28;20205;-25
2023/07/01 14:18:28;;;;;;;0.80;0.80;;;;;;;;;;5097738;28;20232;-25
2023/07/01 14:20:58;;;;;;;0.50;0.50;;;;;;;;;;5094789;28;20204;-27
2023/07/01 14:23:29;;;;;;;1.00;0.70;;;;;;;;;;5115234;28;20204;-26
2023/07/01 14:25:57;;;;;;;0.88;0.88;;;;;;;;;;5106062;28;20678;-28
2023/07/01 14:28:24;;;;;;;1.95;0.70;;;;;;;;;;5112000;28;20254;-27
2023/07/01 14:31:03;;;;;;;0.70;0.70;;;;;;;;;;5095188;28;20204;-26
2023/07/01 14:33:38;;;;;;;1.00;0.90;;;;;;;;;;5101408;28;20206;-26
2023/07/01 14:36:06;;;;;;;1.92;1.17;;;;;;;;;;5108214;28;20231;-25
2023/07/01 14:38:38;;;;;;;1.95;0.90;;;;;;;;;;5111249;28;20228;-27
2023/07/01 14:41:05;;;;;;;0.77;0.77;;;;;;;;;;5096854;28;20213;-25
2023/07/01 14:43:32;;;;;;;1.13;0.80;;;;;;;;;;5102694;28;20199;-25
2023/07/01 14:46:00;;;;;;;0.77;0.77;;;;;;;;;;5094042;28;20235;-28
2023/07/01 14:48:28;;;;;;;2.05;0.73;;;;;;;;;;5099136;28;20232;-25